sensor_id;sensor_type;location;lat;lon;timestamp;P1;durP1;ratioP1;P2;durP2;ratioP2
32964;SDS011;19317;48.226;11.686;2023-03-03T00:03:45;35.80;;;17.00;;
32964;SDS011;19317;48.226;11.686;2023-03-03T00:08:36;28.03;;;15.97;;
32964;SDS011;19317;48.226;11.686;2023-03-03T00:13:27;31.33;;;15.70;;
32964;SDS011;19317;48.226;11.686;2023-03-03T00:18:27;32.90;;;17.57;;
32964;SDS011;19317;48.226;11.686;2023-03-03T00:28:38;26.00;;;14.90;;
32964;SDS011;19317;48.226;11.686;2023-03-03T00:33:47;29.23;;;14.87;;
32964;SDS011;19317;48.226;11.686;2023-03-03T00:38:39;28.37;;;15.60;;
32964;SDS011;19317;48.226;11.686;2023-03-03T00:43:33;30.87;;;16.57;;
32964;SDS011;19317;48.226;11.686;2023-03-03T00:48:43;28.23;;;15.83;;
32964;SDS011;19317;48.226;11.686;2023-03-03T00:53:34;32.13;;;17.23;;
32964;SDS011;19317;48.226;11.686;2023-03-03T00:58:24;26.83;;;14.20;;
32964;SDS011;19317;48.226;11.686;2023-03-03T01:03:22;27.40;;;15.70;;
32964;SDS011;19317;48.226;11.686;2023-03-03T01:08:13;29.57;;;16.50;;
32964;SDS011;19317;48.226;11.686;2023-03-03T01:13:04;35.70;;;17.27;;
32964;SDS011;19317;48.226;11.686;2023-03-03T01:17:55;28.97;;;15.37;;
32964;SDS011;19317;48.226;11.686;2023-03-03T01:22:46;31.73;;;17.30;;
32964;SDS011;19317;48.226;11.686;2023-03-03T01:27:37;27.63;;;16.27;;
32964;SDS011;19317;48.226;11.686;2023-03-03T01:32:28;29.60;;;16.53;;
32964;SDS011;19317;48.226;11.686;2023-03-03T01:37:18;36.97;;;16.93;;
32964;SDS011;19317;48.226;11.686;2023-03-03T01:42:09;34.00;;;17.00;;
32964;SDS011;19317;48.226;11.686;2023-03-03T01:47:06;38.00;;;18.00;;
32964;SDS011;19317;48.226;11.686;2023-03-03T01:52:03;32.10;;;16.57;;
32964;SDS011;19317;48.226;11.686;2023-03-03T01:57:15;33.27;;;16.63;;
32964;SDS011;19317;48.226;11.686;2023-03-03T02:02:12;31.10;;;17.67;;
32964;SDS011;19317;48.226;11.686;2023-03-03T02:07:06;37.53;;;19.47;;
32964;SDS011;19317;48.226;11.686;2023-03-03T02:12:00;29.70;;;15.70;;
32964;SDS011;19317;48.226;11.686;2023-03-03T02:16:54;31.63;;;17.33;;
32964;SDS011;19317;48.226;11.686;2023-03-03T02:21:45;31.07;;;17.43;;
32964;SDS011;19317;48.226;11.686;2023-03-03T02:26:36;31.53;;;18.07;;
32964;SDS011;19317;48.226;11.686;2023-03-03T02:31:30;28.00;;;15.10;;
32964;SDS011;19317;48.226;11.686;2023-03-03T02:36:25;29.63;;;16.70;;
32964;SDS011;19317;48.226;11.686;2023-03-03T02:41:25;33.90;;;18.30;;
32964;SDS011;19317;48.226;11.686;2023-03-03T02:46:23;32.03;;;17.53;;
32964;SDS011;19317;48.226;11.686;2023-03-03T02:51:14;28.07;;;16.20;;
32964;SDS011;19317;48.226;11.686;2023-03-03T02:56:05;25.87;;;15.63;;
32964;SDS011;19317;48.226;11.686;2023-03-03T03:00:56;31.07;;;16.77;;
32964;SDS011;19317;48.226;11.686;2023-03-03T03:05:46;35.67;;;17.07;;
32964;SDS011;19317;48.226;11.686;2023-03-03T03:10:37;33.30;;;17.27;;
32964;SDS011;19317;48.226;11.686;2023-03-03T03:15:27;34.87;;;16.80;;
32964;SDS011;19317;48.226;11.686;2023-03-03T03:20:18;31.87;;;17.73;;
32964;SDS011;19317;48.226;11.686;2023-03-03T03:25:08;31.87;;;18.47;;
32964;SDS011;19317;48.226;11.686;2023-03-03T03:29:59;30.73;;;18.37;;
32964;SDS011;19317;48.226;11.686;2023-03-03T03:34:49;28.17;;;15.53;;
32964;SDS011;19317;48.226;11.686;2023-03-03T03:39:40;32.17;;;17.23;;
32964;SDS011;19317;48.226;11.686;2023-03-03T03:44:30;31.10;;;17.67;;
32964;SDS011;19317;48.226;11.686;2023-03-03T03:49:20;35.60;;;18.63;;
32964;SDS011;19317;48.226;11.686;2023-03-03T03:54:11;36.03;;;18.17;;
32964;SDS011;19317;48.226;11.686;2023-03-03T03:59:01;27.87;;;15.07;;
32964;SDS011;19317;48.226;11.686;2023-03-03T04:03:54;31.50;;;16.43;;
32964;SDS011;19317;48.226;11.686;2023-03-03T04:08:44;33.03;;;16.93;;
32964;SDS011;19317;48.226;11.686;2023-03-03T04:13:35;32.77;;;17.23;;
32964;SDS011;19317;48.226;11.686;2023-03-03T04:18:25;31.93;;;17.63;;
32964;SDS011;19317;48.226;11.686;2023-03-03T04:23:16;34.17;;;18.43;;
32964;SDS011;19317;48.226;11.686;2023-03-03T04:28:06;33.33;;;17.50;;
32964;SDS011;19317;48.226;11.686;2023-03-03T04:32:57;31.37;;;17.53;;
32964;SDS011;19317;48.226;11.686;2023-03-03T04:37:47;33.33;;;18.50;;
32964;SDS011;19317;48.226;11.686;2023-03-03T04:42:37;34.43;;;18.97;;
32964;SDS011;19317;48.226;11.686;2023-03-03T04:47:28;26.37;;;13.97;;
32964;SDS011;19317;48.226;11.686;2023-03-03T04:52:19;29.67;;;17.73;;
32964;SDS011;19317;48.226;11.686;2023-03-03T04:57:10;32.53;;;18.00;;
32964;SDS011;19317;48.226;11.686;2023-03-03T05:02:00;34.63;;;18.33;;
32964;SDS011;19317;48.226;11.686;2023-03-03T05:06:51;34.87;;;18.10;;
32964;SDS011;19317;48.226;11.686;2023-03-03T05:11:41;33.73;;;18.37;;
32964;SDS011;19317;48.226;11.686;2023-03-03T05:16:32;33.27;;;18.43;;
32964;SDS011;19317;48.226;11.686;2023-03-03T05:21:22;33.17;;;19.07;;
32964;SDS011;19317;48.226;11.686;2023-03-03T05:26:13;36.83;;;18.93;;
32964;SDS011;19317;48.226;11.686;2023-03-03T05:31:03;31.23;;;17.03;;
32964;SDS011;19317;48.226;11.686;2023-03-03T05:35:55;34.67;;;19.43;;
32964;SDS011;19317;48.226;11.686;2023-03-03T05:40:46;33.17;;;17.97;;
32964;SDS011;19317;48.226;11.686;2023-03-03T05:45:37;29.43;;;18.17;;
32964;SDS011;19317;48.226;11.686;2023-03-03T05:50:27;36.10;;;17.83;;
32964;SDS011;19317;48.226;11.686;2023-03-03T05:55:18;31.97;;;18.40;;
32964;SDS011;19317;48.226;11.686;2023-03-03T06:00:09;33.57;;;18.20;;
32964;SDS011;19317;48.226;11.686;2023-03-03T06:05:00;35.17;;;18.73;;
32964;SDS011;19317;48.226;11.686;2023-03-03T06:09:51;36.83;;;18.67;;
32964;SDS011;19317;48.226;11.686;2023-03-03T06:14:41;38.73;;;19.83;;
32964;SDS011;19317;48.226;11.686;2023-03-03T06:19:32;37.63;;;19.90;;
32964;SDS011;19317;48.226;11.686;2023-03-03T06:24:22;38.07;;;18.83;;
32964;SDS011;19317;48.226;11.686;2023-03-03T06:29:13;35.60;;;18.23;;
32964;SDS011;19317;48.226;11.686;2023-03-03T06:34:03;32.33;;;17.00;;
32964;SDS011;19317;48.226;11.686;2023-03-03T06:38:54;38.97;;;19.77;;
32964;SDS011;19317;48.226;11.686;2023-03-03T06:43:44;38.07;;;19.73;;
32964;SDS011;19317;48.226;11.686;2023-03-03T06:48:35;34.13;;;18.77;;
32964;SDS011;19317;48.226;11.686;2023-03-03T06:53:25;38.00;;;20.90;;
32964;SDS011;19317;48.226;11.686;2023-03-03T06:58:17;34.77;;;19.30;;
32964;SDS011;19317;48.226;11.686;2023-03-03T07:03:13;34.40;;;18.73;;
32964;SDS011;19317;48.226;11.686;2023-03-03T07:08:05;31.57;;;18.80;;
32964;SDS011;19317;48.226;11.686;2023-03-03T07:13:17;35.70;;;19.13;;
32964;SDS011;19317;48.226;11.686;2023-03-03T07:23:35;31.80;;;17.40;;
32964;SDS011;19317;48.226;11.686;2023-03-03T07:28:28;40.27;;;21.67;;
32964;SDS011;19317;48.226;11.686;2023-03-03T07:33:25;42.17;;;21.87;;
32964;SDS011;19317;48.226;11.686;2023-03-03T07:38:41;35.63;;;20.27;;
32964;SDS011;19317;48.226;11.686;2023-03-03T07:43:47;39.70;;;20.60;;
32964;SDS011;19317;48.226;11.686;2023-03-03T07:48:42;35.50;;;19.47;;
32964;SDS011;19317;48.226;11.686;2023-03-03T07:53:33;33.70;;;19.43;;
32964;SDS011;19317;48.226;11.686;2023-03-03T07:58:58;32.07;;;19.43;;
32964;SDS011;19317;48.226;11.686;2023-03-03T08:03:41;36.23;;;18.87;;
32964;SDS011;19317;48.226;11.686;2023-03-03T08:08:33;39.03;;;20.03;;
32964;SDS011;19317;48.226;11.686;2023-03-03T08:13:28;35.53;;;20.40;;
32964;SDS011;19317;48.226;11.686;2023-03-03T08:18:31;42.13;;;23.57;;
32964;SDS011;19317;48.226;11.686;2023-03-03T08:23:25;39.47;;;22.63;;
32964;SDS011;19317;48.226;11.686;2023-03-03T08:28:16;37.00;;;18.93;;
32964;SDS011;19317;48.226;11.686;2023-03-03T08:33:07;35.97;;;19.43;;
32964;SDS011;19317;48.226;11.686;2023-03-03T08:37:58;33.00;;;18.30;;
32964;SDS011;19317;48.226;11.686;2023-03-03T08:42:48;34.03;;;20.77;;
32964;SDS011;19317;48.226;11.686;2023-03-03T08:47:39;36.80;;;21.33;;
32964;SDS011;19317;48.226;11.686;2023-03-03T08:52:29;36.47;;;22.63;;
32964;SDS011;19317;48.226;11.686;2023-03-03T08:57:20;37.30;;;21.87;;
32964;SDS011;19317;48.226;11.686;2023-03-03T09:02:10;35.83;;;19.80;;
32964;SDS011;19317;48.226;11.686;2023-03-03T09:07:01;43.60;;;23.13;;
32964;SDS011;19317;48.226;11.686;2023-03-03T09:11:58;38.77;;;21.43;;
32964;SDS011;19317;48.226;11.686;2023-03-03T09:16:52;37.90;;;23.60;;
32964;SDS011;19317;48.226;11.686;2023-03-03T09:21:44;42.80;;;21.67;;
32964;SDS011;19317;48.226;11.686;2023-03-03T09:31:38;38.57;;;22.10;;
32964;SDS011;19317;48.226;11.686;2023-03-03T09:36:36;33.20;;;19.60;;
32964;SDS011;19317;48.226;11.686;2023-03-03T10:02:24;43.33;;;24.33;;
32964;SDS011;19317;48.226;11.686;2023-03-03T10:18:22;35.80;;;21.80;;
32964;SDS011;19317;48.226;11.686;2023-03-03T10:44:21;34.53;;;21.30;;
32964;SDS011;19317;48.226;11.686;2023-03-03T10:59:49;37.23;;;22.70;;
32964;SDS011;19317;48.226;11.686;2023-03-03T11:15:08;38.63;;;23.60;;
32964;SDS011;19317;48.226;11.686;2023-03-03T11:25:31;31.67;;;20.10;;
32964;SDS011;19317;48.226;11.686;2023-03-03T11:30:34;36.13;;;21.93;;
32964;SDS011;19317;48.226;11.686;2023-03-03T11:40:52;30.83;;;19.40;;
32964;SDS011;19317;48.226;11.686;2023-03-03T11:45:48;45.07;;;22.83;;
32964;SDS011;19317;48.226;11.686;2023-03-03T11:50:46;35.30;;;20.70;;
32964;SDS011;19317;48.226;11.686;2023-03-03T11:56:02;33.80;;;19.70;;
32964;SDS011;19317;48.226;11.686;2023-03-03T12:06:15;35.10;;;21.17;;
32964;SDS011;19317;48.226;11.686;2023-03-03T12:11:12;36.40;;;22.13;;
32964;SDS011;19317;48.226;11.686;2023-03-03T12:26:21;34.47;;;21.47;;
32964;SDS011;19317;48.226;11.686;2023-03-03T12:31:38;33.93;;;21.33;;
32964;SDS011;19317;48.226;11.686;2023-03-03T12:41:56;29.43;;;19.90;;
32964;SDS011;19317;48.226;11.686;2023-03-03T12:46:58;33.23;;;21.80;;
32964;SDS011;19317;48.226;11.686;2023-03-03T13:07:27;29.90;;;20.53;;
32964;SDS011;19317;48.226;11.686;2023-03-03T13:27:24;31.60;;;21.13;;
32964;SDS011;19317;48.226;11.686;2023-03-03T13:32:22;33.67;;;21.33;;
32964;SDS011;19317;48.226;11.686;2023-03-03T13:37:21;31.23;;;20.87;;
32964;SDS011;19317;48.226;11.686;2023-03-03T13:42:35;33.80;;;21.20;;
32964;SDS011;19317;48.226;11.686;2023-03-03T13:47:30;31.43;;;21.27;;
32964;SDS011;19317;48.226;11.686;2023-03-03T13:57:58;31.87;;;20.40;;
32964;SDS011;19317;48.226;11.686;2023-03-03T14:18:51;33.70;;;20.23;;
32964;SDS011;19317;48.226;11.686;2023-03-03T14:28:44;30.27;;;20.10;;
32964;SDS011;19317;48.226;11.686;2023-03-03T14:33:36;29.90;;;19.23;;
32964;SDS011;19317;48.226;11.686;2023-03-03T14:38:47;27.37;;;18.90;;
32964;SDS011;19317;48.226;11.686;2023-03-03T14:43:38;31.70;;;20.37;;
32964;SDS011;19317;48.226;11.686;2023-03-03T14:48:31;30.13;;;18.93;;
32964;SDS011;19317;48.226;11.686;2023-03-03T14:53:41;29.43;;;19.03;;
32964;SDS011;19317;48.226;11.686;2023-03-03T14:58:35;26.13;;;18.57;;
32964;SDS011;19317;48.226;11.686;2023-03-03T15:03:29;31.07;;;19.50;;
32964;SDS011;19317;48.226;11.686;2023-03-03T15:08:33;30.40;;;18.90;;
32964;SDS011;19317;48.226;11.686;2023-03-03T15:13:28;25.93;;;18.60;;
32964;SDS011;19317;48.226;11.686;2023-03-03T15:18:22;29.20;;;19.40;;
32964;SDS011;19317;48.226;11.686;2023-03-03T15:33:17;30.57;;;20.07;;
32964;SDS011;19317;48.226;11.686;2023-03-03T15:38:33;29.53;;;19.50;;
32964;SDS011;19317;48.226;11.686;2023-03-03T15:43:38;32.57;;;19.33;;
32964;SDS011;19317;48.226;11.686;2023-03-03T15:48:45;30.97;;;19.93;;
32964;SDS011;19317;48.226;11.686;2023-03-03T16:04:30;27.40;;;19.40;;
32964;SDS011;19317;48.226;11.686;2023-03-03T16:09:30;31.60;;;19.77;;
32964;SDS011;19317;48.226;11.686;2023-03-03T16:24:46;27.13;;;19.27;;
32964;SDS011;19317;48.226;11.686;2023-03-03T16:45:27;30.10;;;20.30;;
32964;SDS011;19317;48.226;11.686;2023-03-03T16:56:01;31.10;;;19.33;;
32964;SDS011;19317;48.226;11.686;2023-03-03T17:06:15;25.60;;;17.63;;
32964;SDS011;19317;48.226;11.686;2023-03-03T17:16:08;33.07;;;21.10;;
32964;SDS011;19317;48.226;11.686;2023-03-03T17:26:59;31.07;;;19.77;;
32964;SDS011;19317;48.226;11.686;2023-03-03T17:32:34;27.97;;;20.07;;
32964;SDS011;19317;48.226;11.686;2023-03-03T17:37:38;30.60;;;20.57;;
32964;SDS011;19317;48.226;11.686;2023-03-03T17:42:44;30.30;;;20.07;;
32964;SDS011;19317;48.226;11.686;2023-03-03T18:03:32;34.73;;;22.33;;
32964;SDS011;19317;48.226;11.686;2023-03-03T18:14:01;36.17;;;21.93;;
32964;SDS011;19317;48.226;11.686;2023-03-03T18:29:23;39.80;;;22.97;;
32964;SDS011;19317;48.226;11.686;2023-03-03T18:39:11;35.37;;;23.33;;
32964;SDS011;19317;48.226;11.686;2023-03-03T18:49:17;35.00;;;23.37;;
32964;SDS011;19317;48.226;11.686;2023-03-03T18:59:01;35.43;;;21.93;;
32964;SDS011;19317;48.226;11.686;2023-03-03T19:08:51;36.53;;;22.23;;
32964;SDS011;19317;48.226;11.686;2023-03-03T19:13:43;35.70;;;22.40;;
32964;SDS011;19317;48.226;11.686;2023-03-03T19:18:35;33.50;;;21.87;;
32964;SDS011;19317;48.226;11.686;2023-03-03T19:24:00;37.60;;;22.47;;
32964;SDS011;19317;48.226;11.686;2023-03-03T19:34:52;36.97;;;23.17;;
32964;SDS011;19317;48.226;11.686;2023-03-03T19:39:42;39.60;;;23.20;;
32964;SDS011;19317;48.226;11.686;2023-03-03T19:55:05;35.03;;;22.63;;
32964;SDS011;19317;48.226;11.686;2023-03-03T20:00:14;37.53;;;23.57;;
32964;SDS011;19317;48.226;11.686;2023-03-03T20:05:12;40.47;;;23.53;;
32964;SDS011;19317;48.226;11.686;2023-03-03T20:25:33;42.00;;;24.80;;
32964;SDS011;19317;48.226;11.686;2023-03-03T20:46:18;38.60;;;23.23;;
32964;SDS011;19317;48.226;11.686;2023-03-03T20:56:45;43.10;;;25.87;;
32964;SDS011;19317;48.226;11.686;2023-03-03T21:01:52;50.80;;;28.73;;
32964;SDS011;19317;48.226;11.686;2023-03-03T21:07:02;41.37;;;25.40;;
32964;SDS011;19317;48.226;11.686;2023-03-03T21:11:54;37.27;;;21.70;;
32964;SDS011;19317;48.226;11.686;2023-03-03T21:16:46;38.80;;;24.10;;
32964;SDS011;19317;48.226;11.686;2023-03-03T21:21:39;38.23;;;23.43;;
32964;SDS011;19317;48.226;11.686;2023-03-03T21:26:44;42.27;;;23.43;;
32964;SDS011;19317;48.226;11.686;2023-03-03T21:31:42;39.47;;;22.43;;
32964;SDS011;19317;48.226;11.686;2023-03-03T21:41:25;37.87;;;22.03;;
32964;SDS011;19317;48.226;11.686;2023-03-03T21:46:19;42.40;;;22.87;;
32964;SDS011;19317;48.226;11.686;2023-03-03T21:51:11;35.13;;;21.60;;
32964;SDS011;19317;48.226;11.686;2023-03-03T21:56:01;36.53;;;22.90;;
32964;SDS011;19317;48.226;11.686;2023-03-03T22:00:52;38.33;;;22.17;;
32964;SDS011;19317;48.226;11.686;2023-03-03T22:05:42;45.10;;;25.10;;
32964;SDS011;19317;48.226;11.686;2023-03-03T22:10:33;53.50;;;29.07;;
32964;SDS011;19317;48.226;11.686;2023-03-03T22:15:23;46.17;;;25.60;;
32964;SDS011;19317;48.226;11.686;2023-03-03T22:20:14;50.33;;;28.23;;
32964;SDS011;19317;48.226;11.686;2023-03-03T22:25:05;49.77;;;27.40;;
32964;SDS011;19317;48.226;11.686;2023-03-03T22:29:55;46.17;;;25.37;;
32964;SDS011;19317;48.226;11.686;2023-03-03T22:34:46;42.20;;;24.33;;
32964;SDS011;19317;48.226;11.686;2023-03-03T22:39:36;38.07;;;24.13;;
32964;SDS011;19317;48.226;11.686;2023-03-03T22:44:27;40.50;;;24.20;;
32964;SDS011;19317;48.226;11.686;2023-03-03T22:49:17;41.57;;;25.50;;
32964;SDS011;19317;48.226;11.686;2023-03-03T22:54:08;44.77;;;25.60;;
32964;SDS011;19317;48.226;11.686;2023-03-03T22:58:58;45.20;;;25.40;;
32964;SDS011;19317;48.226;11.686;2023-03-03T23:03:49;46.13;;;26.63;;
32964;SDS011;19317;48.226;11.686;2023-03-03T23:08:39;44.53;;;25.27;;
32964;SDS011;19317;48.226;11.686;2023-03-03T23:13:29;37.70;;;24.37;;
32964;SDS011;19317;48.226;11.686;2023-03-03T23:18:20;46.03;;;26.77;;
32964;SDS011;19317;48.226;11.686;2023-03-03T23:23:10;40.43;;;24.93;;
32964;SDS011;19317;48.226;11.686;2023-03-03T23:28:01;41.30;;;23.80;;
32964;SDS011;19317;48.226;11.686;2023-03-03T23:32:52;45.20;;;26.00;;
32964;SDS011;19317;48.226;11.686;2023-03-03T23:37:42;41.57;;;23.07;;
32964;SDS011;19317;48.226;11.686;2023-03-03T23:42:33;39.43;;;23.03;;
32964;SDS011;19317;48.226;11.686;2023-03-03T23:47:23;41.77;;;24.23;;
32964;SDS011;19317;48.226;11.686;2023-03-03T23:57:08;43.17;;;24.53;;
